createdAt,value
2022-09-13T00:00:28.290Z,43.08
2022-09-13T00:04:50.439Z,38.28
2022-09-13T00:08:54.316Z,42.53
2022-09-13T00:12:56.595Z,40.97
2022-09-13T00:16:58.656Z,41.65
2022-09-13T00:21:05.821Z,36.25
2022-09-13T00:25:08.432Z,35.17
2022-09-13T00:29:10.724Z,39.33
2022-09-13T00:33:13.116Z,34.92
2022-09-13T00:37:15.454Z,34.40
2022-09-13T00:41:20.034Z,32.42
2022-09-13T00:45:22.826Z,41.08
2022-09-13T00:49:34.397Z,37.95
2022-09-13T00:53:41.987Z,40.67
2022-09-13T00:57:44.578Z,36.05
2022-09-13T01:01:55.239Z,41.60
2022-09-13T01:06:02.556Z,37.70
2022-09-13T01:10:07.801Z,40.25
2022-09-13T01:14:10.842Z,31.83
2022-09-13T01:18:13.774Z,40.55
2022-09-13T01:22:30.990Z,37.70
2022-09-13T01:27:10.839Z,40.13
2022-09-13T01:31:22.970Z,33.92
2022-09-13T01:35:38.934Z,37.42
2022-09-13T01:40:04.186Z,37.75
2022-09-13T01:44:35.399Z,40.95
2022-09-13T01:48:59.375Z,39.65
2022-09-13T01:53:30.836Z,40.30
2022-09-13T01:57:35.784Z,35.22
2022-09-13T02:01:50.643Z,42.45
2022-09-13T02:06:01.653Z,38.60
2022-09-13T02:10:16.247Z,41.47
2022-09-13T02:14:25.257Z,41.90
2022-09-13T02:18:34.550Z,33.70
2022-09-13T02:22:43.033Z,34.33
2022-09-13T02:26:51.497Z,40.90
2022-09-13T02:30:58.165Z,39.42
2022-09-13T02:35:11.911Z,35.30
2022-09-13T02:39:16.657Z,39.60
2022-09-13T02:43:31.724Z,36.63
2022-09-13T02:47:33.732Z,36.22
2022-09-13T02:52:02.999Z,34.53
2022-09-13T02:56:33.276Z,38.28
2022-09-13T03:00:35.749Z,37.75
2022-09-13T03:04:37.738Z,38.15
2022-09-13T03:08:39.977Z,38.88
2022-09-13T03:13:03.694Z,36.33
2022-09-13T03:17:50.204Z,29.60
2022-09-13T03:22:13.773Z,44.47
2022-09-13T03:26:34.453Z,44.03
2022-09-13T03:30:41.908Z,38.67
2022-09-13T03:34:54.158Z,34.00
2022-09-13T03:39:14.958Z,37.55
2022-09-13T03:43:43.424Z,27.83
2022-09-13T03:47:49.394Z,34.78
2022-09-13T03:51:53.575Z,54.78
2022-09-13T03:55:55.585Z,42.67
2022-09-13T03:59:57.950Z,60.15
2022-09-13T04:04:00.224Z,59.92
2022-09-13T04:08:06.042Z,48.70
2022-09-13T04:12:10.730Z,41.97
2022-09-13T04:16:13.065Z,44.20
2022-09-13T04:20:15.033Z,42.42
2022-09-13T04:24:18.343Z,36.58
2022-09-13T04:28:22.877Z,30.60
2022-09-13T04:32:25.070Z,32.22
2022-09-13T04:36:27.445Z,43.22
2022-09-13T04:40:29.945Z,107.95
2022-09-13T04:44:32.062Z,90.60
2022-09-13T04:48:34.454Z,171.05
2022-09-13T04:52:36.810Z,114.50
2022-09-13T04:56:39.318Z,54.67
2022-09-13T05:00:42.089Z,233.23
2022-09-13T05:04:44.290Z,82.70
2022-09-13T05:08:52.921Z,77.07
2022-09-13T05:12:55.810Z,69.68
2022-09-13T05:16:57.774Z,191.35
2022-09-13T05:21:02.610Z,304.67
2022-09-13T05:25:04.987Z,333.52
2022-09-13T05:29:07.414Z,37.88
2022-09-13T05:33:09.441Z,145.13
2022-09-13T05:37:11.840Z,91.60
2022-09-13T05:41:13.939Z,34.75
2022-09-13T05:45:16.678Z,176.68
2022-09-13T05:49:19.344Z,329.52
2022-09-13T05:53:21.725Z,60.80
2022-09-13T05:57:24.192Z,75.38
2022-09-13T06:01:28.797Z,67.63
2022-09-13T06:05:32.015Z,36.05
2022-09-13T06:09:34.807Z,41.63
2022-09-13T06:13:36.794Z,47.60
2022-09-13T06:17:39.273Z,34.40
2022-09-13T06:21:42.146Z,94.57
2022-09-13T06:25:46.630Z,41.88
2022-09-13T06:29:50.684Z,140.45
2022-09-13T06:34:04.492Z,51.58
2022-09-13T06:38:08.405Z,35.80
2022-09-13T06:42:14.522Z,44.33
2022-09-13T06:46:25.261Z,226.75
2022-09-13T06:50:29.823Z,104.00
2022-09-13T06:54:31.907Z,46.50
2022-09-13T06:58:35.505Z,113.85
2022-09-13T07:02:37.446Z,66.03
2022-09-13T07:06:42.710Z,105.50
2022-09-13T07:10:44.661Z,70.93
2022-09-13T07:14:46.989Z,72.35
2022-09-13T07:18:53.617Z,62.30
2022-09-13T07:22:55.814Z,66.25
2022-09-13T07:26:58.405Z,87.05
2022-09-13T07:31:15.644Z,80.93
2022-09-13T07:35:17.739Z,74.75
2022-09-13T07:39:22.876Z,53.17
2022-09-13T07:43:26.257Z,72.53
2022-09-13T07:47:28.525Z,62.13
2022-09-13T07:51:36.384Z,81.63
2022-09-13T07:55:38.626Z,58.25
2022-09-13T07:59:40.793Z,49.03
2022-09-13T08:03:43.218Z,47.55
2022-09-13T08:07:45.373Z,48.17
2022-09-13T08:11:51.947Z,47.92
2022-09-13T08:15:54.020Z,39.15
2022-09-13T08:19:56.158Z,39.35
2022-09-13T08:24:00.536Z,38.55
2022-09-13T08:28:11.042Z,27.92
2022-09-13T08:32:12.968Z,31.50
2022-09-13T08:36:17.065Z,29.25
2022-09-13T08:40:19.589Z,27.77
2022-09-13T08:44:35.012Z,24.42
2022-09-13T08:48:44.378Z,20.55
2022-09-13T08:52:57.695Z,18.53
2022-09-13T08:57:19.018Z,14.02
2022-09-13T09:01:31.692Z,12.30
2022-09-13T09:05:45.150Z,14.32
2022-09-13T09:09:56.842Z,11.52
2022-09-13T09:14:11.540Z,13.00
2022-09-13T09:18:20.847Z,12.18
2022-09-13T09:22:36.384Z,14.75
2022-09-13T09:26:38.665Z,9.52
2022-09-13T09:31:16.063Z,15.35
2022-09-13T09:35:24.376Z,10.93
2022-09-13T09:39:33.432Z,14.50
2022-09-13T09:43:41.768Z,10.45
2022-09-13T09:47:46.429Z,14.00
2022-09-13T09:51:49.084Z,13.38
2022-09-13T09:56:15.548Z,18.15
2022-09-13T10:00:18.923Z,15.25
2022-09-13T10:04:22.962Z,12.75
2022-09-13T10:08:35.480Z,14.00
2022-09-13T10:12:40.098Z,16.85
2022-09-13T10:16:42.386Z,13.88
2022-09-13T10:21:05.670Z,11.10
2022-09-13T10:25:27.369Z,10.43
2022-09-13T10:29:30.584Z,9.82
2022-09-13T10:33:44.369Z,13.32
2022-09-13T10:37:46.683Z,10.25
2022-09-13T10:41:54.696Z,11.85
2022-09-13T10:45:58.765Z,12.52
2022-09-13T10:50:23.776Z,5.95
2022-09-13T10:54:26.285Z,10.25
2022-09-13T10:58:28.938Z,12.35
2022-09-13T11:02:58.436Z,9.48
2022-09-13T11:07:22.649Z,7.90
2022-09-13T11:11:53.826Z,7.15
2022-09-13T11:16:38.755Z,7.82
2022-09-13T11:20:59.558Z,13.00
2022-09-13T11:25:13.606Z,7.28
2022-09-13T11:29:29.445Z,6.85
2022-09-13T11:33:49.841Z,5.30
2022-09-13T11:38:01.356Z,5.93
2022-09-13T11:42:33.268Z,4.15
2022-09-13T11:46:35.393Z,7.57
2022-09-13T11:50:46.691Z,9.43
2022-09-13T11:54:53.883Z,7.95
2022-09-13T11:59:40.935Z,5.68
2022-09-13T12:04:44.383Z,2.92
2022-09-13T12:08:56.196Z,6.10
2022-09-13T12:13:01.688Z,4.45
2022-09-13T12:17:12.641Z,9.40
2022-09-13T12:21:23.485Z,5.90
2022-09-13T12:25:51.669Z,3.47
2022-09-13T12:30:18.650Z,46.58
2022-09-13T12:34:27.976Z,9.15
2022-09-13T12:39:07.424Z,13.07
2022-09-13T12:43:47.444Z,5.68
2022-09-13T12:48:04.820Z,15.95
2022-09-13T12:52:30.191Z,11.85
2022-09-13T12:57:16.598Z,8.88
2022-09-13T13:01:24.526Z,11.80
2022-09-13T13:05:38.844Z,9.10
2022-09-13T13:09:48.516Z,5.60
2022-09-13T13:14:09.549Z,6.55
2022-09-13T13:18:28.478Z,4.57
2022-09-13T13:22:42.751Z,8.05
2022-09-13T13:26:56.641Z,5.90
2022-09-13T13:30:59.186Z,4.30
2022-09-13T13:35:32.479Z,5.05
2022-09-13T13:39:43.736Z,6.20
2022-09-13T13:43:46.329Z,5.70
2022-09-13T13:48:15.238Z,4.68
2022-09-13T13:52:37.434Z,8.95
2022-09-13T13:56:48.949Z,7.35
2022-09-13T14:00:54.928Z,5.05
2022-09-13T14:05:35.806Z,6.28
2022-09-13T14:09:56.574Z,7.38
2022-09-13T14:14:27.912Z,8.52
2022-09-13T14:18:48.078Z,8.40
2022-09-13T14:22:50.217Z,14.60
2022-09-13T14:26:57.840Z,7.18
2022-09-13T14:31:00.104Z,8.63
2022-09-13T14:35:06.167Z,9.02
2022-09-13T14:39:09.389Z,7.88
2022-09-13T14:43:17.509Z,10.15
2022-09-13T14:47:34.659Z,10.60
2022-09-13T14:52:08.764Z,5.85
2022-09-13T14:56:31.313Z,8.05
2022-09-13T15:00:50.995Z,11.25
2022-09-13T15:04:56.461Z,8.45
2022-09-13T15:09:11.228Z,12.40
2022-09-13T15:13:15.771Z,9.32
2022-09-13T15:17:18.420Z,7.80
2022-09-13T15:21:21.036Z,11.45
2022-09-13T15:25:29.933Z,7.68
2022-09-13T15:29:34.993Z,7.53
2022-09-13T15:33:37.609Z,7.35
2022-09-13T15:37:39.863Z,8.25
2022-09-13T15:42:00.973Z,7.95
2022-09-13T15:46:04.144Z,10.23
2022-09-13T15:50:06.758Z,9.13
2022-09-13T15:54:13.630Z,10.05
2022-09-13T15:58:15.791Z,10.68
2022-09-13T16:02:25.816Z,9.10
2022-09-13T16:06:28.026Z,9.32
2022-09-13T16:10:30.218Z,13.60
2022-09-13T16:14:32.700Z,16.10
2022-09-13T16:18:34.745Z,10.48
2022-09-13T16:22:36.897Z,15.57
2022-09-13T16:26:40.328Z,7.25
2022-09-13T16:30:42.645Z,11.55
2022-09-13T16:34:44.606Z,8.07
2022-09-13T16:38:47.109Z,11.18
2022-09-13T16:42:49.182Z,10.00
2022-09-13T16:46:51.398Z,10.70
2022-09-13T16:50:53.398Z,11.45
2022-09-13T16:54:56.618Z,10.70
2022-09-13T16:58:58.820Z,10.52
2022-09-13T17:03:01.343Z,15.32
2022-09-13T17:07:06.052Z,11.80
2022-09-13T17:11:14.741Z,12.18
2022-09-13T17:15:16.747Z,9.52
2022-09-13T17:19:24.974Z,11.02
2022-09-13T17:23:27.095Z,10.93
2022-09-13T17:27:29.205Z,11.75
2022-09-13T17:31:31.512Z,13.90
2022-09-13T17:35:34.994Z,11.63
2022-09-13T17:39:37.083Z,13.45
2022-09-13T17:43:41.952Z,10.43
2022-09-13T17:47:44.439Z,12.18
2022-09-13T17:51:47.184Z,9.93
2022-09-13T17:55:50.318Z,13.43
2022-09-13T17:59:53.795Z,17.42
2022-09-13T18:03:55.930Z,14.68
2022-09-13T18:07:58.285Z,14.75
2022-09-13T18:12:00.362Z,11.60
2022-09-13T18:16:20.107Z,22.73
2022-09-13T18:20:23.566Z,13.38
2022-09-13T18:24:25.645Z,16.10
2022-09-13T18:28:28.787Z,13.05
2022-09-13T18:32:31.072Z,13.50
2022-09-13T18:36:34.953Z,48.35
2022-09-13T18:40:38.851Z,84.65
2022-09-13T18:44:41.149Z,48.33
2022-09-13T18:48:46.103Z,26.77
2022-09-13T18:52:48.144Z,15.73
2022-09-13T18:56:50.621Z,14.75
2022-09-13T19:01:06.949Z,19.02
2022-09-13T19:05:09.650Z,19.85
2022-09-13T19:09:12.464Z,19.30
2022-09-13T19:13:14.715Z,15.05
2022-09-13T19:17:16.717Z,12.20
2022-09-13T19:21:27.835Z,16.27
2022-09-13T19:25:30.411Z,15.55
2022-09-13T19:29:32.692Z,16.48
2022-09-13T19:33:36.347Z,16.70
2022-09-13T19:37:38.589Z,16.38
2022-09-13T19:41:41.373Z,19.90
2022-09-13T19:45:43.545Z,13.43
2022-09-13T19:49:45.595Z,13.77
2022-09-13T19:53:57.173Z,16.40
2022-09-13T19:57:59.725Z,16.73
2022-09-13T20:02:01.830Z,19.00
2022-09-13T20:06:07.085Z,15.65
2022-09-13T20:10:09.590Z,15.68
2022-09-13T20:14:14.847Z,12.27
2022-09-13T20:18:17.164Z,15.20
2022-09-13T20:22:19.353Z,15.05
2022-09-13T20:26:25.710Z,15.35
2022-09-13T20:30:27.742Z,12.18
2022-09-13T20:34:31.269Z,13.27
2022-09-13T20:38:33.215Z,14.82
2022-09-13T20:42:36.313Z,18.20
2022-09-13T20:46:40.452Z,17.40
2022-09-13T20:50:43.503Z,20.08
2022-09-13T20:54:45.434Z,15.88
2022-09-13T20:58:57.071Z,14.93
2022-09-13T21:02:59.836Z,12.15
2022-09-13T21:07:20.457Z,16.05
2022-09-13T21:11:24.961Z,13.45
2022-09-13T21:15:27.176Z,14.23
2022-09-13T21:19:29.346Z,12.05
2022-09-13T21:23:34.115Z,12.27
2022-09-13T21:27:36.058Z,16.25
2022-09-13T21:31:39.127Z,13.52
2022-09-13T21:35:41.011Z,13.88
2022-09-13T21:39:43.176Z,15.32
2022-09-13T21:43:46.244Z,19.70
2022-09-13T21:47:49.482Z,16.60
2022-09-13T21:51:53.195Z,17.52
2022-09-13T21:55:55.485Z,15.75
2022-09-13T21:59:57.435Z,20.33
2022-09-13T22:04:00.604Z,19.88
2022-09-13T22:08:03.255Z,24.55
2022-09-13T22:12:05.611Z,22.63
2022-09-13T22:16:09.754Z,25.00
2022-09-13T22:20:12.181Z,29.17
2022-09-13T22:24:19.979Z,26.10
2022-09-13T22:28:22.162Z,39.57
2022-09-13T22:32:26.575Z,32.35
2022-09-13T22:36:32.662Z,39.97
2022-09-13T22:40:34.679Z,44.15
2022-09-13T22:44:36.745Z,51.67
2022-09-13T22:48:40.303Z,53.22
2022-09-13T22:52:42.503Z,71.13
2022-09-13T22:56:45.447Z,50.78
2022-09-13T23:00:47.732Z,65.13
2022-09-13T23:04:49.839Z,68.60
2022-09-13T23:08:54.341Z,57.17
2022-09-13T23:12:58.095Z,55.67
2022-09-13T23:17:00.457Z,63.10
2022-09-13T23:21:02.719Z,82.63
2022-09-13T23:25:05.429Z,75.72
2022-09-13T23:29:07.745Z,78.85
2022-09-13T23:33:11.846Z,90.50
2022-09-13T23:37:13.858Z,68.70
2022-09-13T23:41:17.843Z,61.22
2022-09-13T23:45:19.842Z,47.08
2022-09-13T23:49:22.044Z,49.50
2022-09-13T23:53:24.042Z,21.90
2022-09-13T23:57:26.217Z,17.70
